Time;durP1;ratioP1;P1;durP2;ratioP2;P2;SDS_P1;SDS_P2;PMS_P1;PMS_P2;Temp;Humidity;BMP_temperature;BMP_pressure;BME280_temperature;BME280_humidity;BME280_pressure;Samples;Min_cycle;Max_cycle;Signal;HPM_P1;HPM_P2
2022/12/31 00:01:22;;;;;;;2.83;1.30;;;;;;;12.14;100.00;100346.03;5071006;28;20465;-44
2022/12/31 00:03:49;;;;;;;2.65;1.38;;;;;;;12.16;100.00;100338.31;5070164;28;20026;-45
2022/12/31 00:06:19;;;;;;;2.05;1.40;;;;;;;12.16;100.00;100341.75;5078964;28;20038;-44
2022/12/31 00:08:46;;;;;;;2.05;1.30;;;;;;;12.15;100.00;100337.47;5078077;28;20024;-43
2022/12/31 00:11:11;;;;;;;4.10;1.35;;;;;;;12.16;100.00;100335.75;5082633;28;20431;-46
2022/12/31 00:13:37;;;;;;;1.73;1.40;;;;;;;12.17;100.00;100337.47;5079077;28;20093;-43
2022/12/31 00:16:12;;;;;;;2.67;1.35;;;;;;;12.17;100.00;100340.91;5067094;28;20025;-43
2022/12/31 00:18:38;;;;;;;3.55;1.40;;;;;;;12.17;100.00;100335.75;5071263;28;20035;-45
2022/12/31 00:21:07;;;;;;;2.55;1.30;;;;;;;12.18;100.00;100339.19;5064847;28;20051;-44
2022/12/31 00:23:33;;;;;;;1.83;1.40;;;;;;;12.19;100.00;100335.78;5068577;28;20024;-44
2022/12/31 00:26:07;;;;;;;1.75;1.40;;;;;;;12.19;100.00;100334.06;5072366;28;20051;-45
2022/12/31 00:28:34;;;;;;;2.20;1.60;;;;;;;12.20;100.00;100340.09;5066115;28;20443;-45
2022/12/31 00:31:12;;;;;;;2.45;1.52;;;;;;;12.20;100.00;100334.94;5080076;28;20024;-43
2022/12/31 00:33:38;;;;;;;2.28;1.50;;;;;;;12.20;100.00;100335.81;5069098;28;20420;-46
2022/12/31 00:36:10;;;;;;;2.88;1.40;;;;;;;12.22;100.00;100325.53;5062506;28;20039;-43
2022/12/31 00:38:37;;;;;;;1.58;1.40;;;;;;;12.22;100.00;100316.06;5069986;28;20040;-44
2022/12/31 00:41:03;;;;;;;2.42;1.60;;;;;;;12.20;100.00;100322.94;5060546;28;20131;-44
2022/12/31 00:43:28;;;;;;;2.70;1.60;;;;;;;12.24;100.00;100329.84;5066139;28;20025;-45
2022/12/31 00:45:54;;;;;;;2.97;1.88;;;;;;;12.22;100.00;100323.81;5064635;28;20508;-43
2022/12/31 00:48:20;;;;;;;2.70;1.70;;;;;;;12.22;100.00;100321.22;5067931;28;20035;-42
2022/12/31 00:50:45;;;;;;;1.65;1.55;;;;;;;12.21;100.00;100319.50;5070490;28;20028;-47
2022/12/31 00:53:11;;;;;;;5.85;1.80;;;;;;;12.23;100.00;100324.66;5076689;28;20039;-45
2022/12/31 00:55:36;;;;;;;3.78;1.83;;;;;;;12.22;100.00;100318.66;5077569;28;20564;-47
2022/12/31 00:58:01;;;;;;;1.85;1.70;;;;;;;12.23;100.00;100320.38;5080798;28;20035;-45
2022/12/31 01:00:27;;;;;;;2.55;1.70;;;;;;;12.23;100.00;100325.53;5074404;28;20515;-44
2022/12/31 01:02:52;;;;;;;2.53;1.80;;;;;;;12.23;100.00;100322.94;5071603;28;20029;-44
2022/12/31 01:05:17;;;;;;;2.33;1.65;;;;;;;12.23;100.00;100320.38;5076964;28;20032;-44
2022/12/31 01:07:43;;;;;;;3.75;1.70;;;;;;;12.25;100.00;100304.91;5068373;28;20033;-45
2022/12/31 01:10:09;;;;;;;2.72;1.80;;;;;;;12.25;100.00;100305.78;5072464;28;20591;-45
2022/12/31 01:12:34;;;;;;;2.92;1.52;;;;;;;12.25;100.00;100297.19;5071438;28;20033;-43
2022/12/31 01:14:59;;;;;;;2.55;1.30;;;;;;;12.26;100.00;100297.22;5078066;28;20039;-46
2022/12/31 01:17:25;;;;;;;1.55;1.25;;;;;;;12.27;100.00;100285.19;5072435;28;20107;-43
2022/12/31 01:19:50;;;;;;;2.05;1.20;;;;;;;12.27;100.00;100274.88;5079185;28;20039;-43
2022/12/31 01:22:16;;;;;;;1.95;1.20;;;;;;;12.26;100.00;100294.66;5068452;28;20040;-45
2022/12/31 01:24:41;;;;;;;1.17;0.88;;;;;;;12.28;100.00;100303.25;5070574;28;20356;-43
2022/12/31 01:27:06;;;;;;;1.33;0.80;;;;;;;12.27;100.00;100306.69;5074333;28;20053;-45
2022/12/31 01:29:32;;;;;;;1.55;0.70;;;;;;;12.29;100.00;100304.13;5072431;28;20044;-44
2022/12/31 01:31:57;;;;;;;1.23;0.82;;;;;;;12.26;100.00;100302.38;5072921;28;20322;-45
2022/12/31 01:34:23;;;;;;;1.92;0.80;;;;;;;12.27;100.00;100309.25;5069673;28;20140;-44
2022/12/31 01:36:48;;;;;;;1.27;0.63;;;;;;;12.28;100.00;100305.84;5065093;28;20032;-46
2022/12/31 01:39:14;;;;;;;0.80;0.65;;;;;;;12.28;100.00;100313.56;5065221;28;20089;-46
2022/12/31 01:41:42;;;;;;;1.83;0.88;;;;;;;12.28;100.00;100317.88;5065588;28;20130;-47
2022/12/31 01:44:11;;;;;;;0.82;0.63;;;;;;;12.28;100.00;100321.31;5072632;28;20024;-44
2022/12/31 01:46:40;;;;;;;1.55;0.60;;;;;;;12.29;100.00;100320.44;5070912;28;20473;-46
2022/12/31 01:49:28;;;;;;;1.88;0.60;;;;;;;12.31;100.00;100317.88;5073636;28;20055;-46
2022/12/31 01:52:01;;;;;;;0.60;0.60;;;;;;;12.30;100.00;100331.63;5079789;28;20051;-46
2022/12/31 01:54:30;;;;;;;1.35;0.60;;;;;;;12.28;100.00;100359.97;5074023;28;20035;-47
2022/12/31 01:56:56;;;;;;;;;;;;;;;12.35;100.00;100374.66;5082581;28;20385;-45
2022/12/31 01:59:24;;;;;;;1.00;0.57;;;;;;;12.29;100.00;100405.53;5074453;28;19912;-44
2022/12/31 02:01:52;;;;;;;2.35;0.70;;;;;;;12.28;100.00;100420.97;5072175;28;20033;-46
2022/12/31 02:04:20;;;;;;;4.10;0.80;;;;;;;12.27;100.00;100399.50;5074773;28;20039;-45
2022/12/31 02:06:51;;;;;;;1.08;0.40;;;;;;;12.25;100.00;100343.59;5082348;28;20567;-45
2022/12/31 02:09:16;;;;;;;1.08;0.40;;;;;;;12.18;100.00;100342.63;5074203;28;20138;-43
2022/12/31 02:11:41;;;;;;;1.20;0.40;;;;;;;12.18;100.00;100332.34;5077533;28;20056;-43
2022/12/31 02:14:11;;;;;;;0.50;0.40;;;;;;;12.17;100.00;100340.06;5069331;28;20077;-43
2022/12/31 02:16:42;;;;;;;;;;;;;;;12.26;100.00;100353.06;5072352;28;20028;-46
2022/12/31 02:19:13;;;;;;;1.95;0.50;;;;;;;12.16;100.00;100370.13;5067245;28;19950;-47
2022/12/31 02:22:12;;;;;;;0.77;0.40;;;;;;;12.15;100.00;100372.69;5070336;28;20031;-47
2022/12/31 02:24:51;;;;;;;1.27;0.20;;;;;;;12.13;100.00;100382.94;5066099;28;20032;-45
2022/12/31 02:27:19;;;;;;;0.40;0.30;;;;;;;12.11;100.00;100384.66;5062028;28;20776;-45
2022/12/31 02:30:11;;;;;;;0.40;0.30;;;;;;;12.08;100.00;100371.72;5065475;28;20033;-43
2022/12/31 02:32:57;;;;;;;0.90;0.40;;;;;;;12.10;100.00;100359.72;5061603;28;20518;-46
2022/12/31 02:35:32;;;;;;;0.77;0.40;;;;;;;12.10;100.00;100387.22;5066470;28;20033;-43
2022/12/31 02:38:06;;;;;;;0.38;0.38;;;;;;;12.10;100.00;100374.31;5069805;28;20028;-46
2022/12/31 02:40:35;;;;;;;0.52;0.35;;;;;;;12.10;100.00;100380.34;5072801;28;20024;-44
2022/12/31 02:43:01;;;;;;;0.73;0.30;;;;;;;12.11;100.00;100387.22;5069369;28;20039;-43
2022/12/31 02:45:35;;;;;;;0.57;0.30;;;;;;;12.08;100.00;100384.63;5074350;28;20028;-43
2022/12/31 02:48:22;;;;;;;0.50;0.30;;;;;;;12.10;100.00;100380.34;5082255;28;20056;-45
2022/12/31 02:51:08;;;;;;;1.75;0.50;;;;;;;12.10;100.00;100394.94;5071642;28;20035;-44
2022/12/31 02:54:10;;;;;;;1.92;0.50;;;;;;;12.11;100.00;100383.78;5062215;28;20129;-45
2022/12/31 02:56:57;;;;;;;1.70;0.50;;;;;;;12.11;100.00;100382.06;5059638;28;20503;-45
2022/12/31 03:02:20;;;;;;;0.50;0.40;;;;;;;12.06;100.00;100382.00;5065250;28;20102;-44
2022/12/31 03:04:54;;;;;;;3.38;0.40;;;;;;;12.09;100.00;100378.63;5059583;28;20477;-43
2022/12/31 03:07:26;;;;;;;0.85;0.50;;;;;;;12.06;100.00;100378.56;5061931;28;20028;-45
2022/12/31 03:09:53;;;;;;;0.65;0.43;;;;;;;12.02;100.00;100371.66;5059059;28;20090;-44
2022/12/31 03:15:06;;;;;;;0.88;0.40;;;;;;;12.02;100.00;100367.34;5064090;28;20459;-45
2022/12/31 03:17:34;;;;;;;1.40;0.50;;;;;;;12.02;100.00;100363.91;5060242;28;20035;-46
2022/12/31 03:22:43;;;;;;;1.13;0.45;;;;;;;12.02;100.00;100358.75;5069344;28;20070;-45
2022/12/31 03:27:58;;;;;;;1.00;0.60;;;;;;;12.00;100.00;100350.97;5062447;28;20087;-45
2022/12/31 03:30:24;;;;;;;1.92;0.70;;;;;;;11.98;100.00;100354.41;5063138;28;20040;-44
2022/12/31 03:32:50;;;;;;;1.25;0.60;;;;;;;11.97;100.00;100357.81;5062059;28;20044;-46
2022/12/31 03:35:19;;;;;;;0.60;0.60;;;;;;;11.98;100.00;100347.53;5071658;28;20094;-44
2022/12/31 03:37:44;;;;;;;1.08;0.57;;;;;;;12.01;100.00;100349.28;5069370;28;20024;-47
2022/12/31 03:40:12;;;;;;;1.25;0.80;;;;;;;11.99;100.00;100340.66;5073020;28;20036;-47
2022/12/31 03:42:37;;;;;;;1.27;0.80;;;;;;;11.96;100.00;100333.78;5075392;28;20205;-44
2022/12/31 03:45:03;;;;;;;0.90;0.90;;;;;;;11.95;100.00;100331.16;5064811;28;20037;-44
2022/12/31 03:47:29;;;;;;;1.80;0.90;;;;;;;11.96;100.00;100338.06;5063653;28;20035;-45
2022/12/31 03:49:54;;;;;;;2.28;1.02;;;;;;;11.98;100.00;100338.94;5057504;28;20108;-44
2022/12/31 03:52:20;;;;;;;1.17;0.75;;;;;;;11.96;100.00;100323.47;5066477;28;20401;-43
2022/12/31 03:54:46;;;;;;;1.35;0.95;;;;;;;11.96;100.00;100331.19;5056050;28;20071;-44
2022/12/31 03:57:11;;;;;;;1.17;1.00;;;;;;;11.98;100.00;100324.34;5063570;28;20040;-46
2022/12/31 03:59:37;;;;;;;1.98;1.08;;;;;;;11.95;100.00;100324.31;5052689;28;20466;-46
2022/12/31 04:02:02;;;;;;;2.53;0.95;;;;;;;12.00;100.00;100337.25;5065029;28;20037;-45
2022/12/31 04:04:28;;;;;;;2.08;1.33;;;;;;;11.96;100.00;100330.34;5065217;28;20071;-45
2022/12/31 04:06:53;;;;;;;1.23;1.13;;;;;;;11.99;100.00;100343.25;5064169;28;20060;-45
2022/12/31 04:09:18;;;;;;;2.33;1.15;;;;;;;11.98;100.00;100351.81;5059835;28;20032;-45
2022/12/31 04:11:44;;;;;;;1.40;1.30;;;;;;;12.00;100.00;100355.28;5063040;28;20032;-45
2022/12/31 04:14:10;;;;;;;1.40;1.30;;;;;;;12.01;100.00;100359.59;5058048;28;20594;-43
2022/12/31 04:16:36;;;;;;;1.52;1.42;;;;;;;11.99;100.00;100353.56;5061979;28;20122;-45
2022/12/31 04:19:02;;;;;;;1.42;1.33;;;;;;;11.98;100.00;100350.09;5059300;28;20524;-44
2022/12/31 04:21:27;;;;;;;1.50;1.40;;;;;;;11.97;100.00;100343.22;5063269;28;20040;-46
2022/12/31 04:23:53;;;;;;;1.70;1.60;;;;;;;11.95;100.00;100344.03;5060242;28;20143;-45
2022/12/31 04:26:18;;;;;;;2.22;2.00;;;;;;;11.94;100.00;100343.16;5061187;28;20413;-46
2022/12/31 04:28:43;;;;;;;2.28;2.08;;;;;;;11.95;100.00;100346.63;5061929;28;20049;-46
2022/12/31 04:31:10;;;;;;;1.92;1.77;;;;;;;11.95;100.00;100336.31;5062469;28;20047;-47
2022/12/31 04:33:35;;;;;;;1.77;1.65;;;;;;;11.94;100.00;100337.16;5060213;28;20036;-45
2022/12/31 04:36:06;;;;;;;3.38;1.98;;;;;;;11.93;100.00;100325.13;5067586;28;20038;-44
2022/12/31 04:38:32;;;;;;;3.58;1.92;;;;;;;11.94;100.00;100317.41;5063118;28;20558;-45
2022/12/31 04:41:15;;;;;;;1.85;1.75;;;;;;;11.94;100.00;100319.13;5064288;28;20036;-45
2022/12/31 04:43:43;;;;;;;2.85;1.60;;;;;;;11.96;100.00;100318.31;5064661;28;20376;-45
2022/12/31 04:46:08;;;;;;;1.95;1.85;;;;;;;11.93;100.00;100310.53;5053891;28;20057;-45
2022/12/31 04:48:34;;;;;;;1.60;1.50;;;;;;;11.96;100.00;100317.44;5060897;28;20503;-43
2022/12/31 04:50:59;;;;;;;1.70;1.60;;;;;;;11.93;100.00;100325.13;5061790;28;20021;-47
2022/12/31 04:53:25;;;;;;;1.85;1.70;;;;;;;11.95;100.00;100339.78;5060525;28;20032;-44
2022/12/31 04:55:51;;;;;;;2.25;1.70;;;;;;;11.92;100.00;100344.88;5054307;28;20032;-44
2022/12/31 04:58:16;;;;;;;2.05;1.85;;;;;;;11.89;100.00;100333.63;5057610;28;20032;-47
2022/12/31 05:00:43;;;;;;;2.10;1.90;;;;;;;11.91;100.00;100334.56;5061544;28;20032;-46
2022/12/31 05:03:09;;;;;;;1.88;1.55;;;;;;;11.92;100.00;100346.59;5063626;28;20059;-44
2022/12/31 05:05:37;;;;;;;2.08;1.90;;;;;;;11.93;100.00;100351.75;5056564;28;20120;-46
2022/12/31 05:08:03;;;;;;;2.10;1.95;;;;;;;11.91;100.00;100362.88;5064781;28;20025;-46
2022/12/31 05:10:28;;;;;;;1.85;1.75;;;;;;;11.91;100.00;100366.34;5062503;28;20642;-44
2022/12/31 05:12:53;;;;;;;2.10;2.00;;;;;;;11.92;100.00;100368.06;5060081;28;20059;-44
2022/12/31 05:15:19;;;;;;;3.55;2.10;;;;;;;11.90;100.00;100376.63;5057252;28;20441;-43
2022/12/31 05:17:44;;;;;;;2.30;2.10;;;;;;;11.93;100.00;100371.50;5060485;28;20055;-43
2022/12/31 05:20:09;;;;;;;2.45;2.25;;;;;;;11.93;100.00;100382.66;5061579;28;20058;-45
2022/12/31 05:22:35;;;;;;;3.55;2.10;;;;;;;11.92;100.00;100372.34;5061107;28;20074;-44
2022/12/31 05:25:00;;;;;;;3.22;1.90;;;;;;;11.92;100.00;100373.22;5058255;28;20036;-44
2022/12/31 05:27:29;;;;;;;2.42;2.10;;;;;;;11.93;100.00;100381.81;5063672;28;20024;-45
2022/12/31 05:29:55;;;;;;;2.70;2.50;;;;;;;11.94;100.00;100374.09;5065040;28;20396;-46
2022/12/31 05:32:20;;;;;;;3.33;2.15;;;;;;;11.94;100.00;100380.97;5061465;28;20037;-46
2022/12/31 05:34:45;;;;;;;2.72;2.40;;;;;;;11.95;100.00;100375.84;5066310;28;20028;-45
2022/12/31 05:37:11;;;;;;;4.20;2.50;;;;;;;11.97;100.00;100379.31;5060709;28;20063;-46
2022/12/31 05:39:36;;;;;;;2.60;2.40;;;;;;;11.96;100.00;100374.13;5062590;28;20555;-45
2022/12/31 05:42:02;;;;;;;2.70;2.50;;;;;;;11.97;100.00;100386.16;5067023;28;20054;-47
2022/12/31 05:44:27;;;;;;;3.78;2.33;;;;;;;11.94;100.00;100386.09;5062700;28;20259;-46
2022/12/31 05:46:52;;;;;;;3.00;2.70;;;;;;;11.96;100.00;100384.44;5062966;28;20029;-46
2022/12/31 05:49:18;;;;;;;2.72;2.53;;;;;;;11.96;100.00;100385.31;5060401;28;20116;-45
2022/12/31 05:51:43;;;;;;;3.30;2.95;;;;;;;11.98;100.00;100390.47;5063807;28;20409;-46
2022/12/31 05:54:08;;;;;;;3.20;2.90;;;;;;;12.00;100.00;100396.50;5061880;28;20077;-47
2022/12/31 05:56:34;;;;;;;3.78;3.05;;;;;;;12.05;100.00;100392.28;5065628;28;20047;-45
2022/12/31 05:58:59;;;;;;;3.25;2.38;;;;;;;12.10;100.00;100394.94;5063526;28;20059;-47
2022/12/31 06:01:25;;;;;;;3.40;2.80;;;;;;;12.11;100.00;100400.09;5066012;28;20064;-47
2022/12/31 06:03:50;;;;;;;4.72;2.30;;;;;;;12.12;100.00;100388.94;5066509;28;20024;-47
2022/12/31 06:06:15;;;;;;;4.70;2.80;;;;;;;12.12;100.00;100401.84;5061426;28;20455;-45
2022/12/31 06:08:41;;;;;;;3.80;3.00;;;;;;;12.12;100.00;100393.25;5074179;28;20028;-46
2022/12/31 06:11:06;;;;;;;5.72;3.10;;;;;;;12.16;100.00;100406.19;5068763;28;20108;-46
2022/12/31 06:13:32;;;;;;;2.47;2.25;;;;;;;12.19;100.00;100393.34;5073938;28;20404;-44
2022/12/31 06:15:57;;;;;;;4.35;1.98;;;;;;;12.25;100.00;100396.00;5072620;28;20028;-44
2022/12/31 06:18:22;;;;;;;3.50;1.50;;;;;;;12.30;100.00;100389.19;5070200;28;20068;-45
2022/12/31 06:20:48;;;;;;;2.72;1.33;;;;;;;12.33;100.00;100393.56;5069726;28;20678;-46
2022/12/31 06:23:13;;;;;;;0.85;0.70;;;;;;;12.40;100.00;100395.34;5070678;28;20032;-47
2022/12/31 06:25:39;;;;;;;3.78;1.00;;;;;;;12.44;100.00;100397.16;5070823;28;20036;-44
2022/12/31 06:28:05;;;;;;;1.52;0.70;;;;;;;12.46;100.00;100408.34;5067149;28;20106;-44
2022/12/31 06:30:31;;;;;;;1.80;0.70;;;;;;;12.48;100.00;100404.06;5071414;28;20126;-44
2022/12/31 06:32:56;;;;;;;2.92;0.70;;;;;;;12.53;100.00;100396.38;5074479;28;20051;-46
2022/12/31 06:35:21;;;;;;;2.15;0.60;;;;;;;12.58;100.00;100394.72;5067614;28;20115;-45
2022/12/31 06:37:47;;;;;;;4.78;0.70;;;;;;;12.60;100.00;100388.72;5065610;28;20422;-46
2022/12/31 06:40:12;;;;;;;2.15;0.43;;;;;;;12.65;100.00;100378.47;5066541;28;20033;-46
2022/12/31 06:42:38;;;;;;;3.25;0.68;;;;;;;12.71;100.00;100381.13;5061786;28;20040;-46
2022/12/31 06:45:04;;;;;;;2.33;0.55;;;;;;;12.74;100.00;100388.03;5063396;28;20047;-46
2022/12/31 06:47:29;;;;;;;4.32;0.60;;;;;;;12.79;100.00;100391.53;5065436;28;20052;-43
2022/12/31 06:49:55;;;;;;;2.55;0.50;;;;;;;12.85;100.00;100401.91;5059523;28;20028;-45
2022/12/31 06:52:20;;;;;;;3.15;0.60;;;;;;;12.90;100.00;100384.78;5064037;28;20028;-44
2022/12/31 06:54:46;;;;;;;1.45;0.32;;;;;;;12.99;100.00;100394.34;5065287;28;20035;-46
2022/12/31 06:57:12;;;;;;;3.33;0.65;;;;;;;13.03;100.00;100381.47;5063086;28;20077;-46
2022/12/31 06:59:38;;;;;;;2.35;0.60;;;;;;;13.06;100.00;100381.53;5070174;28;20031;-46
2022/12/31 07:02:15;;;;;;;3.33;0.60;;;;;;;13.10;100.00;100387.56;5065306;28;20062;-46
2022/12/31 07:04:59;;;;;;;1.95;0.65;;;;;;;13.12;100.00;100388.47;5059572;28;20086;-44
2022/12/31 07:07:24;;;;;;;4.55;0.60;;;;;;;13.19;100.00;100390.25;5060363;28;20079;-44
2022/12/31 07:10:01;;;;;;;1.85;0.50;;;;;;;13.23;100.00;100402.38;5064299;28;20036;-47
2022/12/31 07:12:35;;;;;;;4.35;0.50;;;;;;;13.29;100.00;100415.34;5065404;28;20024;-46
2022/12/31 07:15:05;;;;;;;4.22;0.70;;;;;;;13.29;100.00;100406.75;5061786;28;20123;-46
2022/12/31 07:18:12;;;;;;;4.88;0.70;;;;;;;13.28;100.00;100400.69;5063373;28;20017;-46
2022/12/31 07:20:37;;;;;;;3.50;0.65;;;;;;;13.30;100.00;100403.31;5045255;28;20041;-46
2022/12/31 07:23:03;;;;;;;5.50;0.90;;;;;;;13.26;100.00;100394.66;5066905;28;20047;-46
2022/12/31 07:25:30;;;;;;;2.90;0.50;;;;;;;13.27;100.00;100401.53;5069844;28;20035;-45
2022/12/31 07:27:58;;;;;;;4.60;0.80;;;;;;;13.26;100.00;100404.13;5066317;28;20094;-46
2022/12/31 07:30:41;;;;;;;3.87;0.70;;;;;;;13.27;100.00;100398.97;5074800;28;20024;-47
2022/12/31 07:33:28;;;;;;;7.45;0.73;;;;;;;13.30;100.00;100414.50;5062585;28;20290;-44
2022/12/31 07:36:00;;;;;;;2.63;0.70;;;;;;;13.31;100.00;100405.88;5071153;28;20024;-46
2022/12/31 07:38:53;;;;;;;3.58;0.60;;;;;;;13.35;100.00;100410.25;5065084;28;20027;-48
2022/12/31 07:41:40;;;;;;;4.60;0.63;;;;;;;13.40;100.00;100418.88;5062343;28;20381;-45
2022/12/31 07:44:42;;;;;;;6.95;0.80;;;;;;;13.45;100.00;100400.84;5062898;28;20032;-45
2022/12/31 07:47:20;;;;;;;3.97;0.80;;;;;;;13.50;100.00;100387.97;5060220;28;20059;-46
2022/12/31 07:49:45;;;;;;;4.10;0.55;;;;;;;13.53;100.00;100391.47;5062109;28;20020;-44
2022/12/31 07:52:11;;;;;;;3.50;1.02;;;;;;;13.57;100.00;100394.91;5057146;28;20040;-44
2022/12/31 07:54:36;;;;;;;4.65;0.80;;;;;;;13.56;100.00;100399.22;5063505;28;20028;-43
2022/12/31 07:57:02;;;;;;;6.65;0.95;;;;;;;13.57;100.00;100397.50;5056590;28;20029;-44
2022/12/31 07:59:42;;;;;;;3.35;0.80;;;;;;;13.57;100.00;100388.03;5058804;28;20131;-45
2022/12/31 08:02:19;;;;;;;2.88;0.80;;;;;;;13.60;100.00;100382.06;5062373;28;20123;-46
2022/12/31 08:05:09;;;;;;;4.22;0.80;;;;;;;13.59;100.00;100396.69;5060966;28;20027;-46
2022/12/31 08:08:04;;;;;;;8.02;1.13;;;;;;;13.59;100.00;100406.13;5057525;28;20023;-43
2022/12/31 08:10:58;;;;;;;4.53;0.73;;;;;;;13.59;100.00;100419.94;5060568;28;20016;-45
2022/12/31 08:13:24;;;;;;;5.07;0.80;;;;;;;13.60;100.00;100418.22;5057698;28;20566;-45
2022/12/31 08:15:50;;;;;;;6.93;0.90;;;;;;;13.60;100.00;100437.16;5061468;28;20516;-44
2022/12/31 08:18:15;;;;;;;5.63;1.00;;;;;;;13.60;100.00;100438.88;5072058;28;20043;-45
2022/12/31 08:21:07;;;;;;;3.55;0.70;;;;;;;13.60;100.00;100462.13;5063116;28;20766;-45
2022/12/31 08:24:03;;;;;;;5.18;0.90;;;;;;;13.59;100.00;100471.59;5056241;28;20513;-47
2022/12/31 08:26:37;;;;;;;5.32;1.50;;;;;;;13.59;100.00;100471.59;5058107;28;20066;-46
2022/12/31 08:29:25;;;;;;;3.33;0.75;;;;;;;13.61;100.00;100492.28;5055876;28;20107;-45
2022/12/31 08:32:02;;;;;;;3.45;0.68;;;;;;;13.60;100.00;100504.31;5060580;28;20478;-46
2022/12/31 08:34:36;;;;;;;2.67;0.70;;;;;;;13.61;100.00;100513.81;5059617;28;20028;-46
2022/12/31 08:37:12;;;;;;;3.65;0.65;;;;;;;13.64;100.00;100515.53;5061658;28;20111;-45
2022/12/31 08:39:52;;;;;;;3.67;0.60;;;;;;;13.65;100.00;100517.28;5067435;28;20524;-42
2022/12/31 08:42:39;;;;;;;4.70;0.80;;;;;;;13.66;100.00;100517.31;5059341;28;20078;-48
2022/12/31 08:45:08;;;;;;;1.88;0.70;;;;;;;13.71;100.00;100543.19;5058071;28;20047;-43
2022/12/31 08:47:33;;;;;;;5.63;1.33;;;;;;;13.72;100.00;100536.31;5063450;28;20063;-46
2022/12/31 08:49:59;;;;;;;4.35;0.90;;;;;;;13.73;100.00;100561.28;5070112;28;20020;-44
2022/12/31 08:52:25;;;;;;;6.88;0.80;;;;;;;13.75;100.00;100550.13;5066841;28;20350;-46
2022/12/31 08:54:52;;;;;;;2.17;0.70;;;;;;;13.75;100.00;100560.44;5063105;28;20029;-43
2022/12/31 08:57:38;;;;;;;3.95;0.75;;;;;;;13.75;100.00;100568.19;5063823;28;20119;-47
2022/12/31 09:00:18;;;;;;;2.53;0.70;;;;;;;13.76;100.00;100572.50;5067417;28;20028;-44
2022/12/31 09:03:08;;;;;;;2.65;0.70;;;;;;;13.75;100.00;100583.69;5063677;28;20037;-44
2022/12/31 09:05:53;;;;;;;3.13;0.70;;;;;;;13.77;100.00;100576.84;5064672;28;20024;-44
2022/12/31 09:08:48;;;;;;;4.05;1.10;;;;;;;13.76;100.00;100589.75;5062860;28;20039;-44
2022/12/31 09:11:50;;;;;;;5.50;0.70;;;;;;;13.77;100.00;100582.03;5066724;28;20331;-46
2022/12/31 09:14:42;;;;;;;2.60;0.60;;;;;;;13.78;100.00;100596.69;5063393;28;20055;-46
2022/12/31 09:17:23;;;;;;;2.45;0.70;;;;;;;13.79;100.00;100610.47;5063616;28;20033;-44
2022/12/31 09:19:49;;;;;;;3.13;0.90;;;;;;;13.82;100.00;100621.69;5069296;28;20063;-45
2022/12/31 09:22:14;;;;;;;5.22;0.70;;;;;;;13.86;100.00;100622.59;5073210;28;20071;-43
2022/12/31 09:24:40;;;;;;;2.38;0.40;;;;;;;13.92;100.00;100612.31;5072150;28;20398;-47
2022/12/31 09:27:28;;;;;;;3.40;0.60;;;;;;;13.92;100.00;100638.16;5070448;28;20036;-44
2022/12/31 09:30:15;;;;;;;3.35;0.82;;;;;;;13.97;100.00;100622.72;5069666;28;20070;-45
2022/12/31 09:33:01;;;;;;;4.03;0.85;;;;;;;14.00;100.00;100646.84;5069351;28;20123;-44
2022/12/31 09:35:35;;;;;;;3.17;0.75;;;;;;;14.01;100.00;100637.38;5066769;28;20024;-45
2022/12/31 09:38:15;;;;;;;5.40;0.70;;;;;;;14.00;100.00;100638.25;5070061;28;20032;-45
2022/12/31 09:40:46;;;;;;;3.05;0.70;;;;;;;13.99;100.00;100649.44;5068344;28;20029;-44
2022/12/31 09:43:24;;;;;;;2.45;0.63;;;;;;;13.98;100.00;100645.97;5069368;28;20477;-43
2022/12/31 09:45:55;;;;;;;2.70;0.70;;;;;;;13.99;100.00;100647.72;5072485;28;20447;-46
2022/12/31 09:48:49;;;;;;;4.78;1.10;;;;;;;13.97;100.00;100646.84;5067041;28;20091;-44
2022/12/31 09:51:29;;;;;;;3.60;0.90;;;;;;;13.99;100.00;100649.44;5071201;28;20033;-44
2022/12/31 09:54:20;;;;;;;1.98;0.70;;;;;;;14.01;100.00;100643.41;5071534;28;20024;-46
2022/12/31 09:57:10;;;;;;;5.57;1.98;;;;;;;14.00;100.00;100644.28;5066030;28;20036;-42
2022/12/31 09:59:53;;;;;;;5.60;1.30;;;;;;;14.03;100.00;100643.47;5066133;28;20021;-44
2022/12/31 10:02:51;;;;;;;3.70;1.13;;;;;;;14.06;100.00;100649.50;5065337;28;20040;-44
2022/12/31 10:05:25;;;;;;;3.55;1.10;;;;;;;14.06;100.00;100651.22;5067363;28;20020;-41
2022/12/31 10:07:56;;;;;;;3.83;0.90;;;;;;;14.05;100.00;100649.50;5067638;28;20029;-42
2022/12/31 10:10:29;;;;;;;5.93;1.30;;;;;;;14.06;100.00;100651.22;5068164;28;20028;-42
2022/12/31 10:13:09;;;;;;;5.82;1.20;;;;;;;14.06;100.00;100651.22;5061436;28;20074;-44
2022/12/31 10:15:56;;;;;;;5.40;1.23;;;;;;;14.06;100.00;100651.22;5064875;28;20457;-42
2022/12/31 10:19:07;;;;;;;4.28;1.38;;;;;;;14.02;100.00;100652.94;5053962;28;20039;-42
2022/12/31 10:21:51;;;;;;;4.57;1.45;;;;;;;14.03;100.00;100652.06;5043122;28;20606;-43
2022/12/31 10:24:39;;;;;;;6.53;1.75;;;;;;;14.03;100.00;100667.59;5057622;28;20864;-46
2022/12/31 10:27:25;;;;;;;6.15;1.50;;;;;;;14.03;100.00;100661.56;5052699;28;20480;-43
2022/12/31 10:29:56;;;;;;;4.05;1.33;;;;;;;14.04;100.00;100642.59;5052185;28;20043;-42
2022/12/31 10:32:42;;;;;;;4.90;1.83;;;;;;;14.04;100.00;100621.91;5054023;28;20548;-43
2022/12/31 10:35:27;;;;;;;3.80;0.93;;;;;;;14.07;100.00;100632.28;5053453;28;20611;-44
2022/12/31 10:38:05;;;;;;;4.22;0.93;;;;;;;14.06;100.00;100620.19;5054554;28;20031;-43
2022/12/31 10:40:42;;;;;;;7.20;1.40;;;;;;;14.07;100.00;100624.53;5055260;28;20107;-45
2022/12/31 10:43:41;;;;;;;3.40;1.17;;;;;;;14.09;100.00;100615.06;5059192;28;21177;-43
2022/12/31 10:46:25;;;;;;;;;;;;;;;14.14;100.00;100626.34;5071301;28;20496;-41
2022/12/31 10:48:58;;;;;;;5.38;1.30;;;;;;;14.13;100.00;100628.03;5069221;28;20398;-42
2022/12/31 10:51:29;;;;;;;5.03;1.15;;;;;;;14.12;100.00;100626.31;5066353;28;20056;-45
2022/12/31 10:54:30;;;;;;;6.75;1.90;;;;;;;14.14;100.00;100632.38;5068792;28;20495;-39
2022/12/31 10:57:17;;;;;;;5.28;1.50;;;;;;;14.15;100.00;100628.94;5072045;28;20113;-43
2022/12/31 11:00:01;;;;;;;5.72;1.30;;;;;;;14.18;100.00;100638.41;5071546;28;20059;-43
2022/12/31 11:02:41;;;;;;;5.82;1.92;;;;;;;14.18;100.00;100657.38;5063313;28;20048;-43
2022/12/31 11:05:44;;;;;;;7.22;1.30;;;;;;;14.22;100.00;100653.13;5066911;28;20029;-41
2022/12/31 11:08:22;;;;;;;5.45;1.25;;;;;;;14.26;100.00;100651.41;5070070;28;20047;-42
2022/12/31 11:10:59;;;;;;;4.78;0.90;;;;;;;14.27;100.00;100646.28;5061484;28;20033;-44
2022/12/31 11:13:38;;;;;;;5.95;1.40;;;;;;;14.27;100.00;100648.88;5063832;28;20040;-40
2022/12/31 11:16:22;;;;;;;6.57;1.42;;;;;;;14.29;100.00;100641.97;5060008;28;20611;-40
2022/12/31 11:19:03;;;;;;;7.43;2.30;;;;;;;14.32;100.00;100642.03;5063130;28;20025;-43
2022/12/31 11:21:51;;;;;;;4.82;1.10;;;;;;;14.38;100.00;100648.97;5065457;28;20031;-46
2022/12/31 11:24:38;;;;;;;8.60;1.45;;;;;;;14.40;100.00;100652.44;5063892;28;20036;-40
2022/12/31 11:27:03;;;;;;;6.13;1.33;;;;;;;14.42;100.00;100651.59;5067179;28;20493;-41
2022/12/31 11:30:03;;;;;;;5.45;1.45;;;;;;;14.45;100.00;100653.34;5064957;28;20053;-40
2022/12/31 11:32:56;;;;;;;6.82;1.30;;;;;;;14.46;100.00;100648.22;5060949;28;20028;-41
2022/12/31 11:35:31;;;;;;;7.95;1.50;;;;;;;14.49;100.00;100660.28;5060991;28;20039;-45
2022/12/31 11:38:27;;;;;;;5.43;1.55;;;;;;;14.49;100.00;100674.09;5062161;28;20033;-41
2022/12/31 11:40:55;;;;;;;7.82;1.70;;;;;;;14.51;100.00;100671.56;5066040;28;20450;-45
2022/12/31 11:43:54;;;;;;;7.72;1.88;;;;;;;14.53;100.00;100669.84;5063300;28;20057;-47
2022/12/31 11:46:19;;;;;;;6.30;1.77;;;;;;;14.55;100.00;100669.84;5041834;28;20837;-43
2022/12/31 11:49:11;;;;;;;8.57;1.90;;;;;;;14.53;100.00;100664.66;5065986;28;20103;-44
2022/12/31 11:51:57;;;;;;;8.38;2.35;;;;;;;14.52;100.00;100667.25;5059574;28;20151;-39
2022/12/31 11:54:46;;;;;;;7.18;1.90;;;;;;;14.51;100.00;100665.50;5064108;28;20066;-43